Time;durP1;ratioP1;P1;durP2;ratioP2;P2;SDS_P1;SDS_P2;PMS_P1;PMS_P2;Temp;Humidity;BMP_temperature;BMP_pressure;BME280_temperature;BME280_humidity;BME280_pressure;Samples;Min_cycle;Max_cycle;Signal;HPM_P1;HPM_P2
2023/04/04 00:01:48;;;;;;;3.37;1.70;;;4.50;65.80;;;;;;2621664;52;20981;-66
2023/04/04 00:04:17;;;;;;;2.80;1.55;;;4.50;65.80;;;;;;2369319;54;20938;-67
2023/04/04 00:06:46;;;;;;;3.67;1.83;;;4.40;65.70;;;;;;2350024;53;21515;-69
2023/04/04 00:09:12;;;;;;;3.42;1.52;;;4.40;65.70;;;;;;2587099;52;21347;-67
2023/04/04 00:11:41;;;;;;;3.10;1.50;;;4.40;66.40;;;;;;2621027;52;21062;-68
2023/04/04 00:14:07;;;;;;;4.22;1.50;;;4.40;65.70;;;;;;2353172;53;21028;-68
2023/04/04 00:16:33;;;;;;;2.92;1.45;;;4.40;65.80;;;;;;2364038;54;21847;-66
2023/04/04 00:19:00;;;;;;;2.75;1.33;;;4.40;65.80;;;;;;2622033;52;20952;-67
2023/04/04 00:21:26;;;;;;;3.42;1.40;;;4.30;65.70;;;;;;2368910;53;20953;-70
2023/04/04 00:23:53;;;;;;;3.85;1.58;;;4.30;65.70;;;;;;2574227;52;21017;-68
2023/04/04 00:26:20;;;;;;;3.85;1.62;;;4.30;65.80;;;;;;2360910;53;20990;-69
2023/04/04 00:28:47;;;;;;;3.08;1.60;;;4.30;65.80;;;;;;2368855;53;20989;-67
2023/04/04 00:31:13;;;;;;;3.47;1.73;;;4.30;65.70;;;;;;2369397;53;21002;-67
2023/04/04 00:33:40;;;;;;;2.62;1.23;;;4.30;65.70;;;;;;2621521;52;21561;-68
2023/04/04 00:36:09;;;;;;;3.25;1.40;;;4.20;65.70;;;;;;2369515;54;21534;-67
2023/04/04 00:38:37;;;;;;;2.58;1.30;;;4.20;65.60;;;;;;2368141;54;20970;-66
2023/04/04 00:41:05;;;;;;;2.80;1.40;;;4.20;65.60;;;;;;2369493;54;20946;-67
2023/04/04 00:43:31;;;;;;;3.95;1.75;;;4.20;65.60;;;;;;2369198;53;20906;-68
2023/04/04 00:45:57;;;;;;;4.20;1.40;;;4.20;65.60;;;;;;2367761;53;21009;-66
2023/04/04 00:48:24;;;;;;;3.90;1.62;;;4.20;65.60;;;;;;2368320;54;21729;-67
2023/04/04 00:50:51;;;;;;;2.60;1.40;;;4.20;65.60;;;;;;2602549;52;22035;-69
2023/04/04 00:53:18;;;;;;;3.03;1.65;;;4.10;65.60;;;;;;2361659;54;20938;-67
2023/04/04 00:55:45;;;;;;;2.70;1.30;;;4.10;65.60;;;;;;2369322;54;20949;-66
2023/04/04 00:58:14;;;;;;;3.40;1.58;;;4.10;65.60;;;;;;2369626;54;21542;-68
2023/04/04 01:00:41;;;;;;;2.72;1.30;;;4.00;65.60;;;;;;2620854;52;21071;-68
2023/04/04 01:03:09;;;;;;;6.57;1.45;;;4.10;65.60;;;;;;2621977;52;20946;-67
2023/04/04 01:05:36;;;;;;;2.75;1.48;;;4.00;65.60;;;;;;2369441;54;21005;-68
2023/04/04 01:08:04;;;;;;;2.90;1.20;;;4.00;65.50;;;;;;2622383;52;21414;-67
2023/04/04 01:10:32;;;;;;;2.83;1.30;;;4.00;65.50;;;;;;2621375;52;20990;-68
2023/04/04 01:13:00;;;;;;;2.72;1.20;;;4.00;65.60;;;;;;2342254;53;20996;-67
2023/04/04 01:15:26;;;;;;;2.75;1.20;;;3.90;66.20;;;;;;2340950;53;21000;-68
2023/04/04 01:17:59;;;;;;;2.67;1.33;;;3.90;65.50;;;;;;2342160;53;20936;-68
2023/04/04 01:20:25;;;;;;;2.97;1.10;;;3.90;65.50;;;;;;2341542;53;20979;-67
2023/04/04 01:22:52;;;;;;;2.70;1.35;;;3.80;65.30;;;;;;2341619;53;25323;-67
2023/04/04 01:25:33;;;;;;;2.35;1.10;;;3.80;65.40;;;;;;2341317;53;20972;-68
2023/04/04 01:27:59;;;;;;;3.17;1.37;;;3.80;65.30;;;;;;2346589;54;21024;-68
2023/04/04 01:30:27;;;;;;;2.53;1.23;;;3.80;65.30;;;;;;2347666;53;20958;-67
2023/04/04 01:33:08;;;;;;;3.20;1.35;;;3.80;65.40;;;;;;2369132;53;21342;-67
2023/04/04 01:35:52;;;;;;;2.95;1.15;;;3.70;65.10;;;;;;2587049;53;20933;-66
2023/04/04 01:38:29;;;;;;;2.75;1.20;;;3.70;65.20;;;;;;2341647;53;20933;-67
2023/04/04 01:41:02;;;;;;;5.05;1.50;;;3.70;65.30;;;;;;2588286;53;21026;-67
2023/04/04 01:43:30;;;;;;;4.50;1.50;;;3.60;65.40;;;;;;2587486;53;21105;-68
2023/04/04 01:45:59;;;;;;;4.00;1.40;;;3.60;65.40;;;;;;2593908;52;21454;-67
2023/04/04 01:48:26;;;;;;;4.75;1.37;;;3.60;65.50;;;;;;2361364;54;21007;-67
2023/04/04 01:50:53;;;;;;;2.97;1.20;;;3.60;65.50;;;;;;2338659;53;1810618;-68
2023/04/04 01:53:19;;;;;;;2.72;1.37;;;3.50;65.40;;;;;;2367766;54;21050;-67
2023/04/04 01:55:45;;;;;;;3.22;1.48;;;3.50;65.50;;;;;;2620117;52;20958;-66
2023/04/04 01:58:12;;;;;;;2.65;1.30;;;3.50;65.60;;;;;;2367709;54;21827;-66
2023/04/04 02:00:38;;;;;;;2.78;1.50;;;3.50;65.70;;;;;;2618846;52;20949;-68
2023/04/04 02:03:04;;;;;;;2.50;1.30;;;3.50;65.70;;;;;;2619790;52;20938;-66
2023/04/04 02:05:31;;;;;;;2.45;1.10;;;3.40;65.70;;;;;;2619580;52;20994;-68
2023/04/04 02:07:57;;;;;;;3.45;1.40;;;3.40;65.70;;;;;;2367777;53;20926;-68
2023/04/04 02:10:23;;;;;;;3.35;1.30;;;3.40;65.70;;;;;;2619401;52;21293;-68
2023/04/04 02:12:52;;;;;;;4.65;1.37;;;3.40;65.70;;;;;;2595725;52;20951;-68
2023/04/04 02:15:18;;;;;;;4.25;1.42;;;3.40;65.70;;;;;;2616536;52;21418;-66
2023/04/04 02:17:47;;;;;;;2.67;1.25;;;3.40;65.70;;;;;;2367451;53;21440;-67
2023/04/04 02:20:15;;;;;;;3.17;1.60;;;3.30;65.60;;;;;;2367492;53;20942;-67
2023/04/04 02:22:41;;;;;;;4.90;1.60;;;3.30;65.60;;;;;;2620192;52;20974;-67
2023/04/04 02:25:08;;;;;;;3.85;1.40;;;3.30;65.70;;;;;;2368824;53;20918;-67
2023/04/04 02:27:35;;;;;;;3.08;1.30;;;3.30;65.80;;;;;;2367331;53;20956;-67
2023/04/04 02:30:01;;;;;;;3.87;1.35;;;3.30;65.80;;;;;;2368596;54;20954;-68
2023/04/04 02:32:27;;;;;;;3.10;1.12;;;3.30;65.80;;;;;;2367714;53;20958;-68
2023/04/04 02:34:54;;;;;;;5.05;1.15;;;3.30;65.90;;;;;;2620221;52;21009;-67
2023/04/04 02:37:20;;;;;;;2.95;1.60;;;3.30;65.80;;;;;;2619579;52;20953;-68
2023/04/04 02:39:47;;;;;;;4.62;1.60;;;3.20;65.80;;;;;;2368127;54;21040;-66
2023/04/04 02:42:13;;;;;;;3.10;1.70;;;3.20;65.90;;;;;;2368594;54;20942;-67
2023/04/04 02:44:40;;;;;;;2.90;1.50;;;3.20;65.80;;;;;;2367648;54;20990;-67
2023/04/04 02:47:06;;;;;;;3.40;1.70;;;3.20;65.90;;;;;;2621181;52;21005;-67
2023/04/04 02:49:33;;;;;;;3.42;1.27;;;3.20;65.90;;;;;;2370048;53;20954;-67
2023/04/04 02:52:02;;;;;;;3.08;1.42;;;3.10;65.80;;;;;;2370546;54;20949;-66
2023/04/04 02:54:28;;;;;;;2.87;1.30;;;3.20;66.70;;;;;;2621767;52;20917;-68
2023/04/04 02:56:55;;;;;;;2.65;1.37;;;3.10;65.90;;;;;;2622141;52;20946;-68
2023/04/04 02:59:22;;;;;;;3.22;1.20;;;3.10;65.90;;;;;;2369297;54;20974;-66
2023/04/04 03:01:49;;;;;;;2.62;1.30;;;3.10;65.90;;;;;;2621371;52;20934;-67
2023/04/04 03:04:18;;;;;;;3.10;1.50;;;3.10;65.90;;;;;;2367601;53;21472;-66
2023/04/04 03:06:47;;;;;;;2.58;1.15;;;3.10;65.90;;;;;;2601967;52;20971;-66
2023/04/04 03:09:13;;;;;;;3.12;1.23;;;3.10;66.00;;;;;;2622123;52;20997;-68
2023/04/04 03:11:40;;;;;;;4.43;1.50;;;3.10;65.90;;;;;;2621681;52;20933;-66
2023/04/04 03:14:10;;;;;;;4.03;1.80;;;3.10;65.90;;;;;;2622290;52;21447;-67
2023/04/04 03:16:37;;;;;;;3.17;1.58;;;3.10;65.90;;;;;;2586729;53;21048;-67
2023/04/04 03:19:09;;;;;;;4.82;2.20;;;3.00;65.80;;;;;;2363677;54;21673;-68
2023/04/04 03:21:37;;;;;;;4.60;1.90;;;3.00;65.70;;;;;;2368968;54;20942;-68
2023/04/04 03:24:03;;;;;;;4.95;2.08;;;3.00;65.90;;;;;;2621754;52;20918;-68
2023/04/04 03:26:30;;;;;;;4.32;2.00;;;3.00;65.90;;;;;;2368791;54;21284;-67
2023/04/04 03:28:56;;;;;;;6.87;3.00;;;3.00;65.90;;;;;;2621992;52;20954;-68
2023/04/04 03:31:23;;;;;;;6.80;2.62;;;3.00;65.90;;;;;;2617581;52;20938;-68
2023/04/04 03:33:49;;;;;;;5.22;2.78;;;2.90;65.90;;;;;;2365324;54;20959;-67
2023/04/04 03:36:16;;;;;;;7.78;3.08;;;2.90;65.90;;;;;;2353660;53;21045;-68
2023/04/04 03:38:42;;;;;;;4.68;2.90;;;2.90;65.90;;;;;;2369383;54;21211;-67
2023/04/04 03:41:09;;;;;;;4.85;2.58;;;2.90;66.00;;;;;;2369602;54;22028;-67
2023/04/04 03:43:35;;;;;;;3.87;2.00;;;2.90;66.00;;;;;;2621524;52;21025;-68
2023/04/04 03:46:02;;;;;;;3.72;1.85;;;2.90;66.00;;;;;;2622486;52;20934;-68
2023/04/04 03:48:28;;;;;;;4.65;2.17;;;2.90;66.00;;;;;;2370121;53;20985;-68
2023/04/04 03:50:56;;;;;;;3.85;2.10;;;2.90;66.00;;;;;;2365791;53;20979;-67
2023/04/04 03:53:23;;;;;;;5.70;2.30;;;2.90;66.00;;;;;;2354658;53;21006;-68
2023/04/04 03:55:50;;;;;;;5.35;2.50;;;2.80;65.90;;;;;;2359608;54;21838;-67
2023/04/04 03:58:16;;;;;;;4.50;2.10;;;2.80;65.90;;;;;;2360018;53;20946;-66
2023/04/04 04:00:43;;;;;;;5.57;2.83;;;2.80;65.90;;;;;;2369372;54;21010;-70
2023/04/04 04:03:10;;;;;;;6.00;3.40;;;2.80;65.90;;;;;;2369852;54;20930;-69
2023/04/04 04:05:38;;;;;;;5.97;3.40;;;2.80;65.90;;;;;;2368428;54;20942;-66
2023/04/04 04:08:04;;;;;;;7.43;3.53;;;2.80;65.90;;;;;;2622065;52;20973;-68
2023/04/04 04:10:32;;;;;;;6.03;3.05;;;2.80;66.60;;;;;;2369423;54;21053;-67
2023/04/04 04:13:01;;;;;;;8.15;3.62;;;2.80;65.90;;;;;;2622340;52;20954;-67
2023/04/04 04:15:28;;;;;;;4.62;3.05;;;2.80;65.80;;;;;;2369084;54;20930;-67
2023/04/04 04:17:54;;;;;;;7.28;2.97;;;2.70;65.80;;;;;;2369912;53;20972;-66
2023/04/04 04:20:23;;;;;;;4.40;2.40;;;2.70;65.80;;;;;;2621353;52;21384;-66
2023/04/04 04:22:49;;;;;;;6.10;2.50;;;2.70;65.80;;;;;;2348965;53;21000;-67
2023/04/04 04:25:19;;;;;;;4.57;2.87;;;2.70;65.70;;;;;;2621725;52;21721;-66
2023/04/04 04:27:45;;;;;;;4.00;2.40;;;2.70;65.70;;;;;;2621862;52;20954;-66
2023/04/04 04:30:12;;;;;;;5.50;2.30;;;2.70;65.70;;;;;;2622421;52;20936;-68
2023/04/04 04:32:38;;;;;;;4.53;2.12;;;2.70;65.70;;;;;;2621497;52;21439;-66
2023/04/04 04:35:05;;;;;;;3.95;2.08;;;2.70;65.70;;;;;;2621924;52;20985;-68
2023/04/04 04:37:32;;;;;;;3.58;2.08;;;2.60;65.60;;;;;;2620716;52;20914;-66
2023/04/04 04:40:00;;;;;;;4.68;2.17;;;2.60;65.60;;;;;;2369572;53;20966;-68
2023/04/04 04:42:26;;;;;;;5.93;2.90;;;2.60;65.50;;;;;;2621758;52;20922;-67
2023/04/04 04:44:52;;;;;;;6.25;2.70;;;2.60;66.20;;;;;;2604125;52;21114;-68
2023/04/04 04:47:18;;;;;;;6.50;2.75;;;2.50;65.40;;;;;;2360016;54;21013;-67
2023/04/04 04:49:48;;;;;;;4.78;2.50;;;2.50;65.40;;;;;;2621679;52;20968;-68
2023/04/04 04:52:15;;;;;;;5.30;2.62;;;2.50;65.50;;;;;;2622226;52;20914;-67
2023/04/04 04:54:42;;;;;;;4.87;2.37;;;2.40;65.40;;;;;;2369465;53;20914;-67
2023/04/04 04:57:08;;;;;;;4.40;2.37;;;2.50;65.50;;;;;;2622540;52;20961;-66
2023/04/04 04:59:35;;;;;;;4.72;2.22;;;2.40;65.40;;;;;;2369078;53;20910;-66
2023/04/04 05:02:02;;;;;;;4.10;2.12;;;2.40;65.50;;;;;;2368568;54;20990;-67
2023/04/04 05:04:28;;;;;;;3.45;1.73;;;2.40;65.60;;;;;;2621715;52;21727;-66
2023/04/04 05:06:54;;;;;;;4.68;1.80;;;2.40;65.70;;;;;;2621734;52;20950;-67
2023/04/04 05:09:21;;;;;;;3.42;1.70;;;2.40;65.80;;;;;;2621453;52;20973;-69
2023/04/04 05:11:48;;;;;;;4.95;1.80;;;2.40;65.90;;;;;;2369222;53;21025;-68
2023/04/04 05:14:14;;;;;;;3.85;1.60;;;2.40;66.00;;;;;;2366311;53;20952;-67
2023/04/04 05:16:41;;;;;;;3.25;1.60;;;2.40;66.10;;;;;;2352447;53;21430;-68
2023/04/04 05:19:07;;;;;;;3.40;1.70;;;2.40;66.10;;;;;;2341949;53;21000;-68
2023/04/04 05:21:36;;;;;;;3.17;1.45;;;2.40;66.10;;;;;;2341385;53;21685;-67
2023/04/04 05:24:03;;;;;;;4.75;1.77;;;2.30;65.90;;;;;;2341699;53;20980;-68
2023/04/04 05:26:30;;;;;;;3.37;1.50;;;2.40;66.10;;;;;;2587371;53;20988;-66
2023/04/04 05:28:58;;;;;;;3.10;1.48;;;2.40;66.10;;;;;;2341561;53;20996;-66
2023/04/04 05:31:24;;;;;;;3.60;1.70;;;2.30;66.00;;;;;;2344541;53;20933;-67
2023/04/04 05:33:51;;;;;;;3.28;1.20;;;2.30;65.90;;;;;;2340595;53;20952;-67
2023/04/04 05:36:17;;;;;;;3.65;1.48;;;2.20;65.90;;;;;;2341652;53;20945;-68
2023/04/04 05:38:43;;;;;;;4.70;1.70;;;2.30;66.00;;;;;;2584736;53;21027;-68
2023/04/04 05:41:10;;;;;;;4.37;1.87;;;2.40;66.10;;;;;;2585352;53;21008;-66
2023/04/04 05:43:37;;;;;;;3.17;1.45;;;2.30;66.10;;;;;;2342597;53;20967;-66
2023/04/04 05:46:18;;;;;;;3.85;1.60;;;2.30;66.20;;;;;;2339547;53;21025;-69
2023/04/04 05:48:44;;;;;;;4.15;1.58;;;2.30;66.20;;;;;;2587534;53;20945;-68
2023/04/04 05:51:11;;;;;;;3.10;1.65;;;2.30;66.20;;;;;;2587854;53;20985;-69
2023/04/04 05:53:37;;;;;;;3.10;1.50;;;2.30;66.30;;;;;;2344882;53;21015;-67
2023/04/04 05:56:04;;;;;;;4.10;1.83;;;2.30;66.30;;;;;;2343177;53;21096;-67
2023/04/04 05:58:33;;;;;;;3.78;1.70;;;2.30;66.30;;;;;;2340879;53;20956;-67
2023/04/04 06:01:00;;;;;;;4.32;1.42;;;2.40;66.50;;;;;;2585494;53;21319;-68
2023/04/04 06:03:27;;;;;;;5.07;1.98;;;2.40;66.50;;;;;;2326194;53;21037;-67
2023/04/04 06:05:56;;;;;;;3.53;1.60;;;2.40;66.60;;;;;;2333053;53;21039;-66
2023/04/04 06:08:22;;;;;;;3.45;1.60;;;2.40;66.60;;;;;;2587091;53;20984;-67
2023/04/04 06:10:48;;;;;;;3.33;1.73;;;2.40;66.70;;;;;;2341150;53;21371;-67
2023/04/04 06:13:15;;;;;;;5.45;2.10;;;2.50;66.80;;;;;;2340903;53;20953;-66
2023/04/04 06:15:41;;;;;;;2.83;1.58;;;2.40;66.80;;;;;;2586379;52;21750;-67
2023/04/04 06:18:08;;;;;;;4.37;2.10;;;2.50;66.90;;;;;;2587887;53;20992;-67
2023/04/04 06:20:34;;;;;;;4.75;1.98;;;2.50;67.00;;;;;;2340881;53;20936;-67
2023/04/04 06:23:03;;;;;;;3.28;1.70;;;2.50;67.80;;;;;;2341559;53;20989;-66
2023/04/04 06:25:30;;;;;;;5.50;2.10;;;2.50;67.10;;;;;;2586109;53;21024;-66
2023/04/04 06:27:59;;;;;;;4.28;2.05;;;2.60;67.30;;;;;;2341319;53;20936;-68
2023/04/04 06:30:26;;;;;;;4.80;2.15;;;2.60;67.40;;;;;;2587108;53;20989;-66
2023/04/04 06:32:52;;;;;;;5.30;2.20;;;2.60;67.50;;;;;;2343029;53;20992;-67
2023/04/04 06:35:21;;;;;;;5.10;2.17;;;2.70;67.70;;;;;;2585404;53;21021;-66
2023/04/04 06:37:53;;;;;;;5.12;2.17;;;2.70;67.70;;;;;;2587004;53;21454;-68
2023/04/04 06:40:21;;;;;;;6.00;2.45;;;2.70;67.70;;;;;;2341216;54;21024;-67
2023/04/04 06:42:49;;;;;;;5.37;2.30;;;2.80;67.90;;;;;;2351141;54;21037;-68
2023/04/04 06:45:16;;;;;;;5.40;2.40;;;2.80;68.00;;;;;;2367983;53;21051;-66
2023/04/04 06:47:42;;;;;;;5.82;2.42;;;2.90;68.10;;;;;;2619350;52;20971;-67
2023/04/04 06:50:09;;;;;;;4.55;2.33;;;2.90;68.20;;;;;;2365229;54;21447;-68
2023/04/04 06:52:37;;;;;;;5.03;2.42;;;3.00;68.50;;;;;;2616936;52;21021;-65
2023/04/04 06:55:06;;;;;;;7.37;2.90;;;3.10;68.70;;;;;;2617121;52;20945;-67
2023/04/04 06:57:32;;;;;;;7.35;2.80;;;3.10;68.90;;;;;;2616616;52;20984;-66
2023/04/04 06:59:59;;;;;;;6.00;2.45;;;3.20;69.30;;;;;;2365185;54;21452;-67
2023/04/04 07:02:26;;;;;;;5.25;3.03;;;3.30;69.50;;;;;;2367064;53;20986;-66
2023/04/04 07:04:52;;;;;;;5.32;2.72;;;3.40;69.80;;;;;;2343327;54;20970;-68
2023/04/04 07:07:19;;;;;;;6.60;3.08;;;3.50;70.20;;;;;;2365458;54;20946;-66
2023/04/04 07:09:45;;;;;;;5.43;2.65;;;3.60;70.50;;;;;;2365347;53;20934;-68
2023/04/04 07:12:12;;;;;;;6.35;3.25;;;3.80;70.70;;;;;;2617273;52;21502;-68
2023/04/04 07:14:38;;;;;;;4.97;3.00;;;3.90;70.70;;;;;;2617223;52;20954;-68
2023/04/04 07:17:06;;;;;;;4.35;2.47;;;4.00;70.70;;;;;;2616690;52;20965;-67
2023/04/04 07:19:36;;;;;;;4.00;2.60;;;4.10;70.70;;;;;;2366968;53;20978;-69
2023/04/04 07:22:02;;;;;;;4.93;2.67;;;4.20;70.80;;;;;;2368027;53;21510;-68
2023/04/04 07:24:29;;;;;;;4.70;2.55;;;4.30;70.80;;;;;;2367669;54;20950;-68
2023/04/04 07:26:55;;;;;;;5.28;2.53;;;4.40;70.80;;;;;;2620045;52;20970;-67
2023/04/04 07:29:22;;;;;;;5.85;2.72;;;4.50;70.70;;;;;;2367793;54;20981;-69
2023/04/04 07:31:49;;;;;;;6.22;2.90;;;4.60;70.70;;;;;;2618722;52;20990;-68
2023/04/04 07:34:16;;;;;;;5.45;2.17;;;4.70;70.70;;;;;;2367005;54;21464;-69
2023/04/04 07:36:42;;;;;;;5.50;2.90;;;4.80;70.90;;;;;;2619345;52;21911;-67
2023/04/04 07:39:08;;;;;;;4.65;2.35;;;4.90;71.10;;;;;;2619873;52;21707;-67
2023/04/04 07:41:35;;;;;;;4.65;2.42;;;5.00;71.20;;;;;;2366974;53;21998;-67
2023/04/04 07:44:02;;;;;;;3.80;2.30;;;5.10;71.30;;;;;;2618386;52;20962;-69
2023/04/04 07:46:29;;;;;;;3.60;2.00;;;5.20;71.20;;;;;;2355533;53;20990;-69
2023/04/04 07:48:56;;;;;;;4.05;2.25;;;5.40;71.50;;;;;;2357688;53;20946;-67
2023/04/04 07:51:29;;;;;;;5.32;2.50;;;5.50;71.70;;;;;;2619640;52;21013;-68
2023/04/04 07:53:58;;;;;;;4.30;2.20;;;5.60;71.70;;;;;;2619190;52;20942;-68
2023/04/04 07:56:26;;;;;;;4.57;2.60;;;5.70;71.90;;;;;;2591753;52;20979;-68
2023/04/04 07:58:52;;;;;;;4.75;2.25;;;5.90;71.90;;;;;;2365188;53;20930;-67
2023/04/04 08:01:18;;;;;;;3.60;2.03;;;6.00;71.90;;;;;;2364814;54;20986;-69
2023/04/04 08:03:45;;;;;;;3.90;2.12;;;6.10;71.70;;;;;;2365227;53;20934;-68
2023/04/04 08:06:11;;;;;;;4.90;2.15;;;6.20;71.60;;;;;;2367397;53;21076;-68
2023/04/04 08:08:39;;;;;;;5.07;2.35;;;6.30;71.60;;;;;;2619707;52;20997;-68
2023/04/04 08:11:06;;;;;;;3.62;2.33;;;6.50;72.00;;;;;;2368162;54;20977;-69
2023/04/04 08:13:33;;;;;;;4.00;2.30;;;6.60;72.10;;;;;;2367772;54;20941;-69
2023/04/04 08:15:59;;;;;;;4.15;2.05;;;6.70;72.10;;;;;;2367004;53;21494;-70
2023/04/04 08:18:26;;;;;;;5.43;2.15;;;6.80;71.90;;;;;;2367642;54;21552;-68
2023/04/04 08:20:53;;;;;;;4.45;2.00;;;6.90;71.70;;;;;;2367259;53;20954;-68
2023/04/04 08:23:19;;;;;;;5.55;2.03;;;7.00;71.90;;;;;;2367730;53;21013;-68
2023/04/04 08:25:46;;;;;;;4.72;2.42;;;7.10;72.00;;;;;;2619564;52;21419;-68
2023/04/04 08:28:12;;;;;;;3.97;2.10;;;7.20;72.10;;;;;;2620525;52;21005;-69
2023/04/04 08:30:39;;;;;;;4.18;1.90;;;7.30;72.00;;;;;;2619358;52;21088;-68
2023/04/04 08:33:05;;;;;;;3.65;1.98;;;7.50;72.10;;;;;;2619579;52;20982;-70
2023/04/04 08:35:34;;;;;;;3.62;1.85;;;7.50;71.90;;;;;;2618734;52;20970;-68
2023/04/04 08:38:04;;;;;;;4.50;2.12;;;7.60;71.90;;;;;;2365948;54;21354;-69
2023/04/04 08:40:31;;;;;;;3.22;1.75;;;7.70;72.10;;;;;;2366470;54;21419;-70
2023/04/04 08:42:58;;;;;;;4.53;2.20;;;7.80;72.10;;;;;;2366231;53;21049;-71
2023/04/04 08:45:25;;;;;;;4.18;2.00;;;7.90;72.20;;;;;;2365715;54;21245;-70
2023/04/04 08:47:53;;;;;;;3.67;1.83;;;8.00;72.60;;;;;;2616181;52;20942;-70
2023/04/04 08:50:20;;;;;;;5.72;2.25;;;8.20;72.90;;;;;;2365255;54;20926;-69
2023/04/04 08:52:46;;;;;;;4.12;2.00;;;8.30;72.90;;;;;;2358631;53;21403;-71
2023/04/04 08:55:14;;;;;;;4.70;2.15;;;8.40;72.60;;;;;;2351298;53;20966;-69
2023/04/04 08:57:40;;;;;;;3.72;1.65;;;8.50;72.40;;;;;;2347297;54;21945;-70
2023/04/04 09:00:07;;;;;;;3.17;1.77;;;8.60;72.40;;;;;;2362169;54;21452;-69
2023/04/04 09:04:27;;;;;;;5.15;2.28;;;8.80;72.60;;;;;;2363748;54;21040;-71
2023/04/04 09:06:53;;;;;;;3.75;2.10;;;9.00;70.60;;;;;;2366046;54;20978;-70
2023/04/04 09:09:21;;;;;;;4.70;2.15;;;9.10;72.60;;;;;;2365990;53;21537;-70
2023/04/04 09:11:48;;;;;;;4.47;2.10;;;9.20;72.30;;;;;;2366268;53;21001;-71
2023/04/04 09:14:14;;;;;;;5.20;1.98;;;9.40;72.40;;;;;;2617336;52;20934;-70
2023/04/04 09:16:41;;;;;;;4.53;1.98;;;9.40;72.20;;;;;;2367475;53;20957;-69
2023/04/04 09:19:10;;;;;;;3.72;2.03;;;9.50;72.00;;;;;;2619883;52;22020;-70
2023/04/04 09:21:36;;;;;;;3.97;1.83;;;9.60;72.10;;;;;;2620647;52;20978;-70
2023/04/04 09:24:03;;;;;;;3.95;1.90;;;9.60;71.90;;;;;;2368192;53;20978;-71
2023/04/04 09:26:52;;;;;;;3.22;1.70;;;9.80;72.20;;;;;;2620688;52;21053;-71
2023/04/04 09:29:22;;;;;;;3.50;2.00;;;9.90;71.90;;;;;;2368127;54;21049;-70
2023/04/04 09:31:48;;;;;;;5.10;1.98;;;10.00;70.70;;;;;;2368226;54;21297;-73
2023/04/04 09:34:16;;;;;;;4.18;2.40;;;10.10;70.60;;;;;;2367945;53;20926;-70
2023/04/04 09:36:43;;;;;;;4.35;1.87;;;10.20;70.70;;;;;;2369257;53;20926;-71
2023/04/04 09:39:10;;;;;;;4.40;2.10;;;10.30;71.00;;;;;;2621764;52;21224;-70
2023/04/04 09:41:38;;;;;;;4.50;2.28;;;10.40;70.90;;;;;;2369958;54;21432;-72
2023/04/04 09:44:06;;;;;;;3.53;1.90;;;10.50;70.50;;;;;;2586486;53;21515;-71
2023/04/04 09:46:35;;;;;;;3.95;2.15;;;10.50;70.20;;;;;;2353139;54;20924;-71
2023/04/04 09:49:01;;;;;;;4.62;2.25;;;10.60;70.10;;;;;;2369109;54;21029;-70
2023/04/04 09:51:41;;;;;;;4.95;2.37;;;10.60;69.90;;;;;;2368231;54;20954;-71
2023/04/04 09:54:09;;;;;;;4.78;2.05;;;10.70;68.50;;;;;;2620894;52;20946;-74
2023/04/04 09:56:43;;;;;;;4.87;2.08;;;10.70;69.00;;;;;;2611141;52;21095;-72
2023/04/04 09:59:11;;;;;;;4.35;1.95;;;10.70;68.50;;;;;;2604626;52;21026;-71
2023/04/04 10:01:37;;;;;;;4.53;2.00;;;10.70;68.80;;;;;;2369203;53;21037;-73
2023/04/04 10:04:05;;;;;;;4.22;1.77;;;10.70;68.80;;;;;;2369738;53;20934;-70
2023/04/04 10:06:31;;;;;;;4.47;2.10;;;10.70;68.70;;;;;;2600268;52;21303;-72
2023/04/04 10:08:58;;;;;;;5.07;2.10;;;10.80;68.90;;;;;;2363298;53;20934;-73
2023/04/04 10:11:32;;;;;;;3.83;2.10;;;10.80;69.00;;;;;;2621418;52;21375;-72
2023/04/04 10:13:59;;;;;;;3.97;2.00;;;10.80;68.10;;;;;;2369080;53;21034;-73
2023/04/04 10:16:26;;;;;;;3.97;2.35;;;10.90;69.00;;;;;;2621333;52;20907;-71
2023/04/04 10:18:53;;;;;;;3.78;2.10;;;10.90;68.90;;;;;;2369104;53;21113;-73
2023/04/04 10:21:20;;;;;;;5.68;2.00;;;10.90;68.90;;;;;;2620708;52;21272;-73
2023/04/04 10:23:46;;;;;;;4.50;2.10;;;11.00;68.70;;;;;;2621309;52;20953;-71
2023/04/04 10:26:13;;;;;;;4.72;1.95;;;11.00;68.90;;;;;;2621162;52;20930;-71
2023/04/04 10:28:40;;;;;;;4.12;1.92;;;11.00;68.60;;;;;;2369312;54;22581;-72
2023/04/04 10:31:23;;;;;;;4.87;2.03;;;11.10;68.90;;;;;;2620828;52;21046;-72
2023/04/04 10:36:29;;;;;;;8.00;2.50;;;11.10;67.70;;;;;;2363844;53;20974;-72
2023/04/04 10:39:03;;;;;;;4.30;1.90;;;11.20;67.60;;;;;;2584971;53;21630;-71
2023/04/04 10:41:30;;;;;;;3.08;1.80;;;11.20;68.50;;;;;;2584912;53;20984;-73
2023/04/04 10:43:56;;;;;;;4.20;2.53;;;11.20;68.70;;;;;;2340086;54;20923;-72
2023/04/04 10:46:29;;;;;;;4.10;2.20;;;11.30;68.60;;;;;;2586626;53;20984;-71
2023/04/04 10:48:59;;;;;;;4.68;2.10;;;11.30;69.10;;;;;;2337907;53;21798;-71
2023/04/04 10:51:25;;;;;;;5.05;2.20;;;11.40;68.90;;;;;;2586676;52;20945;-72
2023/04/04 10:53:52;;;;;;;3.55;1.65;;;11.40;69.10;;;;;;2340858;54;21196;-71
2023/04/04 10:56:18;;;;;;;6.25;2.17;;;11.50;69.10;;;;;;2592431;52;21482;-70
2023/04/04 10:58:45;;;;;;;3.75;2.00;;;11.50;68.70;;;;;;2586290;53;20981;-71
2023/04/04 11:01:15;;;;;;;4.18;2.08;;;11.60;69.00;;;;;;2596008;52;20997;-71
2023/04/04 11:04:18;;;;;;;3.33;1.90;;;11.60;68.80;;;;;;2620724;52;20962;-71
2023/04/04 11:07:12;;;;;;;3.10;1.62;;;11.70;67.40;;;;;;2621174;52;21021;-71
2023/04/04 11:10:00;;;;;;;3.83;2.05;;;11.80;67.50;;;;;;2369628;54;20930;-71
2023/04/04 11:12:32;;;;;;;3.35;1.90;;;11.80;67.40;;;;;;2593934;52;20982;-71
2023/04/04 11:15:11;;;;;;;;;;;11.90;68.70;;;;;;2364503;54;21016;-71
2023/04/04 11:17:55;;;;;;;4.00;1.90;;;11.90;67.10;;;;;;2359102;53;20397;-71
2023/04/04 11:20:29;;;;;;;4.78;2.00;;;12.00;67.70;;;;;;2367742;53;20954;-71
2023/04/04 11:23:04;;;;;;;3.40;1.95;;;12.00;68.90;;;;;;2620783;52;20942;-73
2023/04/04 11:25:40;;;;;;;3.65;1.92;;;12.10;68.30;;;;;;2600852;52;20947;-73
2023/04/04 11:28:13;;;;;;;3.37;1.87;;;12.10;68.00;;;;;;2615859;52;20930;-71
2023/04/04 11:30:47;;;;;;;4.07;1.98;;;12.10;68.70;;;;;;2620249;52;21449;-70
2023/04/04 11:33:24;;;;;;;3.42;1.95;;;12.20;68.40;;;;;;2620692;52;20942;-70
2023/04/04 11:35:51;;;;;;;5.10;2.78;;;12.20;68.70;;;;;;2368621;53;20934;-70
2023/04/04 11:38:18;;;;;;;3.78;2.20;;;12.30;68.90;;;;;;2368288;54;20948;-71
2023/04/04 11:40:53;;;;;;;4.35;2.30;;;12.30;68.40;;;;;;2368791;54;20946;-71
2023/04/04 11:43:19;;;;;;;3.95;2.10;;;12.30;67.50;;;;;;2368334;53;21900;-70
2023/04/04 11:45:46;;;;;;;5.97;2.20;;;12.40;68.20;;;;;;2620580;52;21760;-69
2023/04/04 11:48:16;;;;;;;4.75;2.40;;;12.40;67.90;;;;;;2352805;53;21022;-70
2023/04/04 11:50:46;;;;;;;3.97;1.90;;;12.40;67.50;;;;;;2366230;54;20977;-70
2023/04/04 11:53:12;;;;;;;3.58;2.12;;;12.40;67.60;;;;;;2369265;53;20925;-70
2023/04/04 11:55:42;;;;;;;4.35;2.05;;;12.40;67.60;;;;;;2621799;52;20949;-69
2023/04/04 11:58:09;;;;;;;3.83;2.17;;;12.40;67.40;;;;;;2369401;54;21746;-71
2023/04/04 12:00:38;;;;;;;4.85;2.37;;;12.40;68.10;;;;;;2621885;52;20928;-70
2023/04/04 12:03:05;;;;;;;4.45;2.28;;;12.50;68.10;;;;;;2621948;52;21752;-70
2023/04/04 12:05:32;;;;;;;3.53;2.12;;;12.50;67.70;;;;;;2369423;53;20925;-70
2023/04/04 12:08:01;;;;;;;5.57;2.75;;;12.50;67.80;;;;;;2622196;52;21021;-71
2023/04/04 12:10:30;;;;;;;5.07;2.35;;;12.50;67.60;;;;;;2587708;53;21004;-70
2023/04/04 12:12:57;;;;;;;5.03;2.67;;;12.50;67.30;;;;;;2341497;53;20972;-71
2023/04/04 12:15:26;;;;;;;4.22;2.15;;;12.50;67.30;;;;;;2587282;53;20933;-70
2023/04/04 12:17:52;;;;;;;5.05;2.55;;;12.60;67.60;;;;;;2342078;53;21075;-69
2023/04/04 12:20:23;;;;;;;4.68;2.37;;;12.60;67.40;;;;;;2586235;53;20949;-69
2023/04/04 12:22:50;;;;;;;4.37;2.37;;;12.60;66.90;;;;;;2338185;53;21008;-70
2023/04/04 12:25:22;;;;;;;3.70;2.08;;;12.60;67.20;;;;;;2341786;53;20964;-70
2023/04/04 12:27:48;;;;;;;4.53;2.40;;;12.60;66.60;;;;;;2587922;53;21071;-70
2023/04/04 12:30:15;;;;;;;6.47;2.95;;;12.60;67.20;;;;;;2341527;53;21879;-69
2023/04/04 12:32:47;;;;;;;4.47;2.42;;;12.60;67.00;;;;;;2587573;53;21055;-70
2023/04/04 12:35:14;;;;;;;5.25;2.20;;;12.60;66.40;;;;;;2587594;53;21850;-70
2023/04/04 12:38:02;;;;;;;6.12;2.65;;;12.60;67.00;;;;;;2341880;53;20992;-69
2023/04/04 12:40:36;;;;;;;4.50;2.25;;;12.70;65.40;;;;;;2616457;52;20925;-70
2023/04/04 12:43:07;;;;;;;5.12;2.62;;;12.70;66.60;;;;;;2364439;54;20916;-71
2023/04/04 12:45:37;;;;;;;5.65;2.42;;;12.70;66.70;;;;;;2350264;54;21484;-69
2023/04/04 12:48:12;;;;;;;5.15;2.80;;;12.70;66.60;;;;;;2340535;53;21438;-71
2023/04/04 12:50:53;;;;;;;4.68;2.30;;;12.70;66.70;;;;;;2340302;55;20925;-72
2023/04/04 12:53:20;;;;;;;4.78;2.30;;;12.70;66.00;;;;;;2320284;54;22012;-71
2023/04/04 12:55:55;;;;;;;3.83;2.25;;;12.80;67.10;;;;;;2344397;54;21066;-70
2023/04/04 12:58:25;;;;;;;4.00;2.33;;;12.80;67.10;;;;;;2587134;53;20976;-74
2023/04/04 13:00:53;;;;;;;3.65;2.20;;;12.80;67.10;;;;;;2587394;53;21512;-72
2023/04/04 13:03:23;;;;;;;4.70;2.22;;;12.80;66.80;;;;;;2349841;54;21864;-73
2023/04/04 13:05:51;;;;;;;4.45;2.30;;;12.90;66.90;;;;;;2369599;54;21009;-73